Time;durP1;ratioP1;P1;durP2;ratioP2;P2;SDS_P1;SDS_P2;PMS_P1;PMS_P2;Temp;Humidity;BMP_temperature;BMP_pressure;BME280_temperature;BME280_humidity;BME280_pressure;Samples;Min_cycle;Max_cycle;Signal;HPM_P1;HPM_P2
2023/02/04 00:02:52;;;;;;;4.27;3.87;;;7.30;99.90;;;;;;6187608;28;20842;-64
2023/02/04 00:05:55;;;;;;;5.67;5.20;;;7.20;99.90;;;;;;6177841;28;20958;-64
2023/02/04 00:08:58;;;;;;;4.37;3.87;;;7.20;99.90;;;;;;6177804;28;20551;-64
2023/02/04 00:12:03;;;;;;;2.70;2.50;;;7.10;99.90;;;;;;6177775;28;20532;-64
2023/02/04 00:15:07;;;;;;;4.60;3.80;;;7.00;99.90;;;;;;6178160;28;20474;-64
2023/02/04 00:18:11;;;;;;;66.30;36.83;;;7.00;99.90;;;;;;6177315;28;20481;-64
2023/02/04 00:21:14;;;;;;;20.40;12.90;;;6.90;99.90;;;;;;6192690;28;20918;-64
2023/02/04 00:24:17;;;;;;;4.67;3.80;;;6.90;99.90;;;;;;6201944;28;20487;-64
2023/02/04 00:27:22;;;;;;;3.23;2.50;;;6.80;99.90;;;;;;6201568;28;20445;-64
2023/02/04 00:30:25;;;;;;;2.47;1.60;;;6.70;99.90;;;;;;6201535;28;20477;-64
2023/02/04 00:33:29;;;;;;;3.90;2.80;;;6.70;99.90;;;;;;6201398;28;20453;-64
2023/02/04 00:36:32;;;;;;;9.57;5.00;;;6.70;99.90;;;;;;6200665;28;20437;-64
2023/02/04 00:39:35;;;;;;;9.90;8.20;;;6.70;99.90;;;;;;6201431;28;20471;-64
2023/02/04 00:42:40;;;;;;;5.80;5.20;;;6.70;99.90;;;;;;6201496;28;20957;-64
2023/02/04 00:45:44;;;;;;;3.70;2.77;;;6.70;99.90;;;;;;6201583;28;20465;-64
2023/02/04 00:48:47;;;;;;;6.33;5.73;;;6.70;99.90;;;;;;6201319;28;20478;-64
2023/02/04 00:51:50;;;;;;;17.33;10.27;;;6.70;99.90;;;;;;6201704;28;20464;-64
2023/02/04 00:54:53;;;;;;;20.30;12.67;;;6.60;99.90;;;;;;6201302;28;20480;-64
2023/02/04 00:57:58;;;;;;;4.33;3.20;;;6.60;99.90;;;;;;6201232;28;20488;-64
2023/02/04 01:01:01;;;;;;;1.50;1.40;;;6.60;99.90;;;;;;6201401;28;20465;-64
2023/02/04 01:04:05;;;;;;;7.53;7.10;;;6.60;99.90;;;;;;6200979;28;20615;-64
2023/02/04 01:07:08;;;;;;;2.23;2.13;;;6.60;99.90;;;;;;6193147;28;20487;-64
2023/02/04 01:10:11;;;;;;;1.07;1.07;;;6.70;99.90;;;;;;6201046;28;20945;-64
2023/02/04 01:13:16;;;;;;;2.60;2.40;;;6.70;99.90;;;;;;6201081;28;20472;-64
2023/02/04 01:16:19;;;;;;;2.17;1.77;;;6.70;99.90;;;;;;6200918;28;20954;-64
2023/02/04 01:19:22;;;;;;;3.20;2.47;;;6.70;99.90;;;;;;6200773;28;20511;-64
2023/02/04 01:22:25;;;;;;;3.83;3.53;;;6.70;99.90;;;;;;6195224;28;20477;-64
2023/02/04 01:25:29;;;;;;;1.90;1.57;;;6.70;99.90;;;;;;6201016;28;20473;-64
2023/02/04 01:28:33;;;;;;;1.20;0.70;;;6.70;99.90;;;;;;6200457;28;20889;-64
2023/02/04 01:31:37;;;;;;;0.50;0.50;;;6.70;99.90;;;;;;6201160;28;20484;-64
2023/02/04 01:34:40;;;;;;;0.60;0.60;;;6.80;99.90;;;;;;6200634;28;20469;-64
2023/02/04 01:37:43;;;;;;;1.00;0.70;;;6.80;99.90;;;;;;6200934;28;20472;-64
2023/02/04 01:40:47;;;;;;;0.60;0.60;;;6.90;99.90;;;;;;6201206;28;20479;-64
2023/02/04 01:43:51;;;;;;;0.53;0.53;;;7.00;99.90;;;;;;6200515;28;20984;-64
2023/02/04 01:46:55;;;;;;;0.50;0.50;;;7.00;99.90;;;;;;6200806;28;20531;-64
2023/02/04 01:49:59;;;;;;;0.40;0.40;;;7.10;99.90;;;;;;6205287;28;20487;-64
2023/02/04 01:53:02;;;;;;;0.50;0.50;;;7.10;99.90;;;;;;6205339;28;20464;-64
2023/02/04 01:56:15;;;;;;;0.70;0.70;;;7.10;99.90;;;;;;6205078;28;20480;-64
2023/02/04 01:59:20;;;;;;;0.50;0.50;;;7.00;99.90;;;;;;6205409;28;20487;-64
2023/02/04 02:02:42;;;;;;;0.50;0.50;;;7.00;99.90;;;;;;6205061;28;20469;-64
2023/02/04 02:05:47;;;;;;;0.70;0.50;;;7.00;99.90;;;;;;6205043;28;20481;-64
2023/02/04 02:08:51;;;;;;;0.60;0.60;;;7.00;99.90;;;;;;6204776;28;20485;-64
2023/02/04 02:11:54;;;;;;;0.53;0.53;;;7.00;99.90;;;;;;6200609;28;20591;-64
2023/02/04 02:14:59;;;;;;;0.50;0.40;;;6.90;99.90;;;;;;6204892;28;20530;-64
2023/02/04 02:18:03;;;;;;;0.63;0.60;;;6.90;99.90;;;;;;6204766;28;20481;-64
2023/02/04 02:21:10;;;;;;;1.00;0.67;;;7.00;99.90;;;;;;6204580;28;20477;-64
2023/02/04 02:24:26;;;;;;;0.50;0.50;;;7.00;99.90;;;;;;6204828;28;20468;-64
2023/02/04 02:27:29;;;;;;;1.50;0.57;;;7.00;99.90;;;;;;6204012;28;20469;-64
2023/02/04 02:30:33;;;;;;;0.40;0.40;;;7.00;99.90;;;;;;6204432;28;20484;-64
2023/02/04 02:33:36;;;;;;;0.50;0.50;;;6.90;99.90;;;;;;6204468;28;20551;-64
2023/02/04 02:36:40;;;;;;;0.70;0.60;;;6.90;99.90;;;;;;6204923;28;20477;-64
2023/02/04 02:39:45;;;;;;;0.50;0.50;;;6.90;99.90;;;;;;6203987;28;20487;-64
2023/02/04 02:42:51;;;;;;;0.50;0.50;;;6.90;99.90;;;;;;6204162;28;20536;-64
2023/02/04 02:45:56;;;;;;;5.03;2.60;;;6.90;99.90;;;;;;6203918;28;20476;-64
2023/02/04 02:49:00;;;;;;;0.87;0.60;;;6.90;99.90;;;;;;6204321;28;20472;-64
2023/02/04 02:52:03;;;;;;;0.47;0.47;;;6.80;99.90;;;;;;6204508;28;20473;-64
2023/02/04 02:55:15;;;;;;;0.40;0.40;;;6.80;99.90;;;;;;6204113;28;20480;-64
2023/02/04 02:58:24;;;;;;;0.57;0.57;;;6.80;99.90;;;;;;6203146;28;20477;-64
2023/02/04 03:01:28;;;;;;;0.53;0.53;;;6.80;99.90;;;;;;6203975;28;20966;-64
2023/02/04 03:04:35;;;;;;;0.50;0.50;;;6.80;99.90;;;;;;6204009;28;20554;-64
2023/02/04 03:07:39;;;;;;;0.50;0.50;;;6.80;99.90;;;;;;6203852;28;20473;-64
2023/02/04 03:10:45;;;;;;;0.60;0.50;;;6.80;99.90;;;;;;6203865;28;20491;-64
2023/02/04 03:13:48;;;;;;;1.53;0.70;;;6.70;99.90;;;;;;6199299;28;20937;-64
2023/02/04 03:16:52;;;;;;;0.50;0.40;;;6.70;99.90;;;;;;6203192;28;20477;-64
2023/02/04 03:19:56;;;;;;;0.73;0.60;;;6.70;99.90;;;;;;6203400;28;20485;-64
2023/02/04 03:23:00;;;;;;;0.50;0.50;;;6.70;99.90;;;;;;6203488;28;20472;-64
2023/02/04 03:26:05;;;;;;;0.47;0.47;;;6.70;99.90;;;;;;6202962;28;20821;-64
2023/02/04 03:29:09;;;;;;;0.63;0.50;;;6.70;99.90;;;;;;6203001;28;20500;-64
2023/02/04 03:32:13;;;;;;;0.50;0.50;;;6.70;99.90;;;;;;6203080;28;20469;-64
2023/02/04 03:35:16;;;;;;;0.50;0.50;;;6.70;99.90;;;;;;6203224;28;20900;-64
2023/02/04 03:38:20;;;;;;;0.40;0.40;;;6.60;99.90;;;;;;6202888;28;20957;-64
2023/02/04 03:41:24;;;;;;;1.07;0.60;;;6.70;99.90;;;;;;6203868;28;20476;-64
2023/02/04 03:44:27;;;;;;;0.50;0.50;;;6.60;99.90;;;;;;6202924;28;20543;-64
2023/02/04 03:47:31;;;;;;;0.60;0.60;;;6.50;99.90;;;;;;6203039;28;20550;-64
2023/02/04 03:50:34;;;;;;;0.50;0.50;;;6.50;99.90;;;;;;6202730;28;20495;-64
2023/02/04 03:53:37;;;;;;;1.33;0.50;;;6.60;99.90;;;;;;6202847;28;20464;-64
2023/02/04 03:56:42;;;;;;;0.60;0.60;;;6.60;99.90;;;;;;6202704;28;20968;-64
2023/02/04 03:59:45;;;;;;;0.83;0.60;;;6.60;99.90;;;;;;6202743;28;20477;-64
2023/02/04 04:02:48;;;;;;;0.50;0.50;;;6.60;99.90;;;;;;6202254;28;20487;-64
2023/02/04 04:05:51;;;;;;;0.50;0.50;;;6.70;99.90;;;;;;6202239;28;20492;-64
2023/02/04 04:08:54;;;;;;;1.63;0.57;;;6.60;99.90;;;;;;6202334;28;20496;-64
2023/02/04 04:11:59;;;;;;;0.50;0.50;;;6.70;99.90;;;;;;6201480;28;20473;-64
2023/02/04 04:15:03;;;;;;;0.83;0.50;;;6.70;99.90;;;;;;6202324;28;20821;-64
2023/02/04 04:18:06;;;;;;;0.87;0.50;;;6.60;99.90;;;;;;6197758;28;20485;-64
2023/02/04 04:21:09;;;;;;;0.60;0.60;;;6.70;99.90;;;;;;6202082;28;20480;-64
2023/02/04 04:24:12;;;;;;;0.40;0.40;;;6.70;99.90;;;;;;6201854;28;20483;-64
2023/02/04 04:27:17;;;;;;;1.90;0.63;;;6.80;99.90;;;;;;6201915;28;20492;-64
2023/02/04 04:30:20;;;;;;;0.50;0.50;;;6.70;99.90;;;;;;6201574;28;20801;-64
2023/02/04 04:33:23;;;;;;;0.40;0.40;;;6.70;99.90;;;;;;6202037;28;20461;-64
2023/02/04 04:36:27;;;;;;;0.57;0.50;;;6.70;99.90;;;;;;6202151;28;20448;-64
2023/02/04 04:39:30;;;;;;;0.43;0.43;;;6.70;99.90;;;;;;6201523;28;20468;-64
2023/02/04 04:42:34;;;;;;;0.50;0.50;;;6.80;99.90;;;;;;6201353;28;20457;-64
2023/02/04 04:45:37;;;;;;;0.53;0.53;;;6.80;99.90;;;;;;6201840;28;20796;-64
2023/02/04 04:48:41;;;;;;;0.50;0.50;;;6.90;99.90;;;;;;6201560;28;20511;-64
2023/02/04 04:51:44;;;;;;;0.50;0.50;;;6.90;99.90;;;;;;6201223;28;20480;-64
2023/02/04 04:54:47;;;;;;;0.50;0.50;;;6.90;99.90;;;;;;6201788;28;20895;-64
2023/02/04 04:57:51;;;;;;;0.70;0.60;;;6.90;99.90;;;;;;6201522;28;20468;-64
2023/02/04 05:00:55;;;;;;;1.13;0.50;;;7.00;99.90;;;;;;6201426;28;20473;-64
2023/02/04 05:03:58;;;;;;;0.50;0.50;;;7.00;99.90;;;;;;6201067;28;20480;-64
2023/02/04 05:07:01;;;;;;;0.50;0.43;;;7.00;99.90;;;;;;6201408;28;20472;-64
2023/02/04 05:10:05;;;;;;;0.50;0.50;;;7.10;99.90;;;;;;6201012;28;20484;-64
2023/02/04 05:13:10;;;;;;;0.77;0.50;;;7.00;99.90;;;;;;6201536;28;20476;-64
2023/02/04 05:16:14;;;;;;;0.50;0.50;;;7.10;99.90;;;;;;6201128;28;20484;-64
2023/02/04 05:19:17;;;;;;;0.60;0.60;;;7.10;99.90;;;;;;6200842;28;20495;-64
2023/02/04 05:22:20;;;;;;;0.40;0.40;;;7.10;99.90;;;;;;6200782;28;20477;-64
2023/02/04 05:25:24;;;;;;;1.03;0.70;;;7.10;99.90;;;;;;6201092;28;20477;-65
2023/02/04 05:28:29;;;;;;;0.60;0.53;;;7.20;99.90;;;;;;6200639;28;20480;-65
2023/02/04 05:31:32;;;;;;;1.73;0.60;;;7.10;99.90;;;;;;6200809;28;20783;-64
2023/02/04 05:34:36;;;;;;;0.60;0.60;;;7.20;99.90;;;;;;6200875;28;20468;-64
2023/02/04 05:37:41;;;;;;;0.63;0.63;;;7.20;99.90;;;;;;6200625;28;20477;-64
2023/02/04 05:40:44;;;;;;;0.70;0.70;;;7.20;99.90;;;;;;6200923;28;21010;-64
2023/02/04 05:43:49;;;;;;;0.60;0.60;;;7.10;99.90;;;;;;6200817;28;20972;-64
2023/02/04 05:46:52;;;;;;;0.50;0.50;;;7.00;99.90;;;;;;6201015;28;20811;-64
2023/02/04 05:49:55;;;;;;;0.50;0.50;;;7.00;99.90;;;;;;6200642;28;20484;-64
2023/02/04 05:52:59;;;;;;;0.50;0.50;;;7.00;99.90;;;;;;6200738;28;20481;-64
2023/02/04 05:56:02;;;;;;;1.43;0.60;;;7.00;99.90;;;;;;6200721;28;20492;-64
2023/02/04 05:59:07;;;;;;;0.70;0.53;;;6.90;99.90;;;;;;6200668;28;20489;-64
2023/02/04 06:02:10;;;;;;;0.80;0.80;;;6.90;99.90;;;;;;6200625;28;20957;-64
2023/02/04 06:05:13;;;;;;;0.77;0.77;;;6.90;99.90;;;;;;6200041;28;20472;-64
2023/02/04 06:08:16;;;;;;;1.30;1.00;;;6.90;99.90;;;;;;6200349;28;20480;-64
2023/02/04 06:11:19;;;;;;;0.60;0.60;;;6.90;99.90;;;;;;6200594;28;20469;-64
2023/02/04 06:14:24;;;;;;;0.87;0.87;;;6.90;99.90;;;;;;6200761;28;20473;-64
2023/02/04 06:17:27;;;;;;;0.40;0.40;;;6.90;99.90;;;;;;6200201;28;20790;-64
2023/02/04 06:20:30;;;;;;;0.57;0.57;;;6.90;99.90;;;;;;6199976;28;20973;-64
2023/02/04 06:23:34;;;;;;;0.50;0.40;;;7.00;99.90;;;;;;6176167;28;20484;-64
2023/02/04 06:26:37;;;;;;;1.17;0.60;;;6.90;99.90;;;;;;6180821;28;20469;-64
2023/02/04 06:29:42;;;;;;;0.57;0.57;;;6.80;99.90;;;;;;6218194;28;20973;-64
2023/02/04 06:32:46;;;;;;;0.67;0.60;;;6.90;99.90;;;;;;6200832;28;20468;-64
2023/02/04 06:35:49;;;;;;;0.70;0.70;;;6.90;99.90;;;;;;6205061;28;20470;-64
2023/02/04 06:38:53;;;;;;;0.60;0.60;;;7.00;99.90;;;;;;6204921;28;20465;-64
2023/02/04 06:41:56;;;;;;;0.60;0.60;;;7.10;99.90;;;;;;6204565;28;20846;-64
2023/02/04 06:45:00;;;;;;;0.60;0.60;;;7.20;99.90;;;;;;6204384;28;20496;-64
2023/02/04 06:48:04;;;;;;;0.60;0.53;;;7.20;99.90;;;;;;6204013;28;20862;-64
2023/02/04 06:51:07;;;;;;;0.60;0.60;;;7.20;99.90;;;;;;6206322;28;20484;-63
2023/02/04 06:54:10;;;;;;;0.70;0.70;;;7.20;99.90;;;;;;6203709;28;20484;-63
2023/02/04 06:57:14;;;;;;;1.10;0.60;;;7.20;99.90;;;;;;6203739;28;20992;-63
2023/02/04 07:00:19;;;;;;;0.60;0.60;;;7.00;99.90;;;;;;6204654;28;20476;-63
2023/02/04 07:03:22;;;;;;;0.60;0.60;;;7.10;99.90;;;;;;6211730;28;20448;-63
2023/02/04 07:06:25;;;;;;;0.70;0.50;;;7.10;99.90;;;;;;6205068;28;21133;-63
2023/02/04 07:09:29;;;;;;;0.57;0.57;;;7.00;99.90;;;;;;6205402;28;20512;-63
2023/02/04 07:12:32;;;;;;;0.50;0.50;;;6.60;99.90;;;;;;6203583;28;20464;-63
2023/02/04 07:15:36;;;;;;;1.93;1.20;;;6.30;99.90;;;;;;6203316;28;20902;-63
2023/02/04 07:18:40;;;;;;;0.67;0.67;;;5.90;99.90;;;;;;6203520;28;20524;-63
2023/02/04 07:21:43;;;;;;;0.60;0.60;;;5.70;99.90;;;;;;6203835;28;20477;-63
2023/02/04 07:24:46;;;;;;;0.90;0.90;;;5.60;99.90;;;;;;6203669;28;20944;-63
2023/02/04 07:27:49;;;;;;;1.40;1.30;;;5.50;99.90;;;;;;6198773;28;20473;-64
2023/02/04 07:30:54;;;;;;;0.63;0.63;;;5.60;99.90;;;;;;6203322;28;20464;-63
2023/02/04 07:33:57;;;;;;;0.50;0.50;;;5.70;99.90;;;;;;6203570;28;20457;-63
2023/02/04 07:37:00;;;;;;;0.67;0.67;;;5.80;99.90;;;;;;6203121;28;20469;-63
2023/02/04 07:40:04;;;;;;;2.40;0.80;;;5.80;99.90;;;;;;6199846;28;20798;-64
2023/02/04 07:43:07;;;;;;;0.80;0.70;;;5.90;99.90;;;;;;6178070;28;20477;-63
2023/02/04 07:46:12;;;;;;;0.80;0.80;;;5.90;99.90;;;;;;6184307;28;20465;-62
2023/02/04 07:49:15;;;;;;;0.60;0.60;;;5.80;99.90;;;;;;6202649;28;20519;-62
2023/02/04 07:52:18;;;;;;;0.90;0.90;;;5.80;99.90;;;;;;6184759;28;20769;-64
2023/02/04 07:55:22;;;;;;;0.77;0.77;;;5.60;99.90;;;;;;6203041;28;20487;-62
2023/02/04 07:58:25;;;;;;;0.90;0.90;;;5.60;99.90;;;;;;6203071;28;20480;-63
2023/02/04 08:01:29;;;;;;;0.90;0.90;;;5.60;99.90;;;;;;6202616;28;20473;-63
2023/02/04 08:04:33;;;;;;;1.03;0.93;;;5.60;99.90;;;;;;6203100;28;20531;-62
2023/02/04 08:07:36;;;;;;;0.77;0.70;;;5.70;99.90;;;;;;6202710;28;20473;-63
2023/02/04 08:10:39;;;;;;;0.80;0.80;;;5.80;99.90;;;;;;6197648;28;20484;-63
2023/02/04 08:13:42;;;;;;;1.40;1.30;;;5.80;99.90;;;;;;6187182;28;20483;-62
2023/02/04 08:16:47;;;;;;;0.73;0.73;;;5.80;99.90;;;;;;6195820;28;20481;-62
2023/02/04 08:19:50;;;;;;;0.97;0.87;;;5.90;99.90;;;;;;6202145;28;20969;-62
2023/02/04 08:22:53;;;;;;;2.13;1.50;;;5.90;99.90;;;;;;6196705;28;20535;-62
2023/02/04 08:25:57;;;;;;;1.27;1.17;;;5.90;99.90;;;;;;6201867;28;20469;-62
2023/02/04 08:29:00;;;;;;;1.30;1.20;;;6.00;99.90;;;;;;6201667;28;20511;-62
2023/02/04 08:32:05;;;;;;;1.00;0.90;;;6.10;99.90;;;;;;6201936;28;20473;-62
2023/02/04 08:35:09;;;;;;;0.80;0.80;;;6.20;99.90;;;;;;6201580;28;20491;-62
2023/02/04 08:38:12;;;;;;;1.20;1.10;;;6.40;99.90;;;;;;6201565;28;20473;-62
2023/02/04 08:41:15;;;;;;;1.57;0.80;;;6.40;99.90;;;;;;6201512;28;20560;-62
2023/02/04 08:44:18;;;;;;;1.23;1.13;;;6.50;99.90;;;;;;6192343;28;20491;-62
2023/02/04 08:47:23;;;;;;;0.70;0.70;;;6.60;99.90;;;;;;6201727;28;20476;-62
2023/02/04 08:50:27;;;;;;;1.20;1.00;;;6.60;99.50;;;;;;6201459;28;20984;-62
2023/02/04 08:53:30;;;;;;;0.90;0.90;;;6.60;99.20;;;;;;6201693;28;20493;-62
2023/02/04 08:56:34;;;;;;;0.80;0.70;;;6.70;97.00;;;;;;6201053;28;20539;-62
2023/02/04 08:59:39;;;;;;;1.17;0.90;;;6.70;97.20;;;;;;6201351;28;20477;-62
2023/02/04 09:02:44;;;;;;;0.70;0.70;;;6.70;96.40;;;;;;6200953;28;20736;-62
2023/02/04 09:05:47;;;;;;;1.00;0.90;;;6.80;94.70;;;;;;6201088;28;20484;-62
2023/02/04 09:08:50;;;;;;;0.70;0.70;;;6.80;93.90;;;;;;6200230;28;20957;-62
2023/02/04 09:11:54;;;;;;;0.73;0.67;;;6.80;92.20;;;;;;6201033;28;20575;-62
2023/02/04 09:14:57;;;;;;;0.73;0.70;;;6.80;91.60;;;;;;6201046;28;20473;-62
2023/02/04 09:18:10;;;;;;;0.60;0.60;;;6.80;90.50;;;;;;6201085;28;20824;-62
2023/02/04 09:21:13;;;;;;;0.77;0.77;;;6.80;89.10;;;;;;6200527;28;20477;-62
2023/02/04 09:24:16;;;;;;;0.77;0.77;;;6.80;88.40;;;;;;6200823;28;21154;-61
2023/02/04 09:27:20;;;;;;;0.73;0.70;;;6.70;86.80;;;;;;6201031;28;20479;-62
2023/02/04 09:30:23;;;;;;;1.53;0.60;;;6.90;86.00;;;;;;6200496;28;20492;-63
2023/02/04 09:33:27;;;;;;;0.90;0.70;;;7.00;85.80;;;;;;6201017;28;20484;-62
2023/02/04 09:36:36;;;;;;;1.13;0.93;;;7.10;85.30;;;;;;6200900;28;20472;-62
2023/02/04 09:39:39;;;;;;;1.10;1.00;;;7.30;82.70;;;;;;6200528;28;20457;-62
2023/02/04 09:42:43;;;;;;;0.63;0.63;;;7.40;82.20;;;;;;6201079;28;20456;-62
2023/02/04 09:45:49;;;;;;;1.00;0.60;;;7.50;79.70;;;;;;6191370;28;20625;-62
2023/02/04 09:48:54;;;;;;;1.00;0.90;;;7.70;80.80;;;;;;6200348;28;20945;-62
2023/02/04 09:51:58;;;;;;;0.80;0.80;;;8.20;77.70;;;;;;6201137;28;20480;-62
2023/02/04 09:55:01;;;;;;;0.40;0.40;;;10.50;74.70;;;;;;6200360;28;20763;-63
2023/02/04 09:58:11;;;;;;;0.83;0.43;;;14.00;59.00;;;;;;6200875;28;20483;-63
2023/02/04 10:01:17;;;;;;;1.40;0.60;;;16.40;48.80;;;;;;6200707;28;20496;-63
2023/02/04 10:04:22;;;;;;;0.80;0.43;;;19.10;43.20;;;;;;6200034;28;20472;-63
2023/02/04 10:07:26;;;;;;;0.53;0.30;;;20.50;36.20;;;;;;6200993;28;20945;-63
2023/02/04 10:10:30;;;;;;;0.80;0.30;;;20.30;33.20;;;;;;6204660;28;20620;-63
2023/02/04 10:13:37;;;;;;;0.47;0.30;;;19.00;32.50;;;;;;6204999;28;20229;-63
2023/02/04 10:16:42;;;;;;;0.60;0.40;;;16.10;35.00;;;;;;6205049;28;20945;-63
2023/02/04 10:19:47;;;;;;;0.67;0.67;;;13.80;39.20;;;;;;6204979;28;20514;-63
2023/02/04 10:22:53;;;;;;;0.50;0.50;;;11.90;44.50;;;;;;6204898;28;20937;-62
2023/02/04 10:25:56;;;;;;;1.03;0.60;;;11.00;47.40;;;;;;6205312;28;20476;-62
2023/02/04 10:29:01;;;;;;;1.50;0.70;;;10.30;49.50;;;;;;6204848;28;20499;-63
2023/02/04 10:32:04;;;;;;;0.63;0.60;;;9.60;53.10;;;;;;6204933;28;20472;-63
2023/02/04 10:35:15;;;;;;;3.23;0.83;;;9.00;55.80;;;;;;6204529;28;20476;-62
2023/02/04 10:38:19;;;;;;;0.50;0.50;;;10.30;53.90;;;;;;6204848;28;20476;-62
2023/02/04 10:41:22;;;;;;;1.33;0.60;;;10.10;52.80;;;;;;6204652;28;20484;-62
2023/02/04 10:44:28;;;;;;;1.27;0.60;;;9.70;54.70;;;;;;6204722;28;20477;-63
2023/02/04 10:47:31;;;;;;;0.93;0.77;;;10.40;53.40;;;;;;6204174;28;20476;-63
2023/02/04 10:50:36;;;;;;;0.70;0.70;;;10.70;52.40;;;;;;6203908;28;20998;-63
2023/02/04 10:57:05;;;;;;;1.10;1.00;;;10.30;51.60;;;;;;6203931;28;20477;-63
2023/02/04 11:00:17;;;;;;;2.63;1.70;;;9.80;52.70;;;;;;6199296;28;20485;-64
2023/02/04 11:03:23;;;;;;;3.23;1.00;;;10.00;55.60;;;;;;6194965;28;20480;-64
2023/02/04 11:06:28;;;;;;;1.00;0.83;;;10.90;54.00;;;;;;6214451;28;20491;-64
2023/02/04 11:09:32;;;;;;;0.70;0.70;;;10.80;52.40;;;;;;6216979;28;20480;-64
2023/02/04 11:12:41;;;;;;;0.70;0.70;;;11.30;50.60;;;;;;6189527;28;20457;-63
2023/02/04 11:15:46;;;;;;;0.83;0.83;;;11.10;46.70;;;;;;6179573;28;20422;-63
2023/02/04 11:18:54;;;;;;;1.03;0.57;;;11.60;46.10;;;;;;6178777;28;20473;-63
2023/02/04 11:22:21;;;;;;;1.97;0.70;;;15.40;41.90;;;;;;6189054;28;20473;-62
2023/02/04 11:25:31;;;;;;;0.87;0.50;;;17.60;33.20;;;;;;6188953;28;20473;-62
2023/02/04 11:28:56;;;;;;;1.67;0.80;;;19.10;30.70;;;;;;6178733;28;20842;-62
2023/02/04 11:32:02;;;;;;;0.87;0.73;;;22.70;27.70;;;;;;6179313;28;20675;-62
2023/02/04 11:35:20;;;;;;;0.90;0.60;;;22.80;25.10;;;;;;6188898;28;20233;-62
2023/02/04 11:38:27;;;;;;;0.87;0.63;;;20.90;24.90;;;;;;6185638;28;20531;-62
2023/02/04 11:41:32;;;;;;;0.77;0.60;;;17.60;26.10;;;;;;6193841;28;20229;-61
2023/02/04 11:44:35;;;;;;;0.90;0.60;;;16.50;28.10;;;;;;6202920;28;20473;-61
2023/02/04 11:47:38;;;;;;;3.00;0.77;;;16.10;29.00;;;;;;6202604;28;20244;-61
2023/02/04 11:50:43;;;;;;;1.00;0.90;;;14.90;28.20;;;;;;6202554;28;20477;-61
2023/02/04 11:53:51;;;;;;;1.43;0.90;;;13.20;29.50;;;;;;6202081;28;20826;-61
2023/02/04 11:57:00;;;;;;;1.10;0.60;;;12.70;30.40;;;;;;6202398;28;20901;-61
2023/02/04 12:00:03;;;;;;;0.50;0.50;;;13.20;31.20;;;;;;6200142;28;20477;-61
2023/02/04 12:03:24;;;;;;;0.70;0.60;;;14.30;29.20;;;;;;6178482;28;20540;-61
2023/02/04 12:06:29;;;;;;;1.43;0.70;;;17.10;28.50;;;;;;6178278;28;20474;-62
2023/02/04 12:09:34;;;;;;;0.77;0.70;;;19.90;25.00;;;;;;6184515;28;20492;-64
2023/02/04 12:12:43;;;;;;;1.00;0.57;;;19.30;23.80;;;;;;6188814;28;20229;-63
2023/02/04 12:15:57;;;;;;;1.07;0.60;;;18.00;25.00;;;;;;6187691;28;20433;-63
2023/02/04 12:19:01;;;;;;;0.70;0.53;;;17.40;25.60;;;;;;6182146;28;20532;-64
2023/02/04 12:22:04;;;;;;;1.80;0.60;;;17.70;25.00;;;;;;6176721;28;20493;-64
2023/02/04 12:25:15;;;;;;;3.73;0.80;;;17.90;24.90;;;;;;6177355;28;20474;-64
2023/02/04 12:28:18;;;;;;;1.60;0.80;;;20.00;24.70;;;;;;6200686;28;20249;-64
2023/02/04 12:31:22;;;;;;;0.73;0.70;;;21.90;22.50;;;;;;6200337;28;20241;-63
2023/02/04 12:34:25;;;;;;;0.70;0.50;;;22.20;21.70;;;;;;6201853;28;20304;-63
2023/02/04 12:37:28;;;;;;;0.93;0.47;;;21.10;20.30;;;;;;6201590;28;20229;-63
2023/02/04 12:40:33;;;;;;;1.07;0.70;;;19.10;21.70;;;;;;6202685;28;20244;-67
2023/02/04 12:43:36;;;;;;;0.80;0.60;;;17.70;23.20;;;;;;6202197;28;20237;-67
2023/02/04 12:46:39;;;;;;;0.70;0.60;;;17.30;24.00;;;;;;6201547;28;20592;-66
2023/02/04 12:49:43;;;;;;;0.67;0.60;;;16.70;24.10;;;;;;6201260;28;20572;-66
2023/02/04 12:52:46;;;;;;;1.70;0.67;;;16.40;25.00;;;;;;6201376;28;20473;-67
2023/02/04 12:55:50;;;;;;;0.80;0.80;;;15.40;25.10;;;;;;6201291;28;20480;-67
2023/02/04 12:58:53;;;;;;;1.50;0.80;;;15.40;25.40;;;;;;6200859;28;20937;-67
2023/02/04 13:01:57;;;;;;;0.60;0.60;;;15.10;26.30;;;;;;6192330;28;20797;-67
2023/02/04 13:05:00;;;;;;;0.80;0.70;;;16.90;25.60;;;;;;6206067;28;20937;-67
2023/02/04 13:08:03;;;;;;;1.00;0.73;;;17.50;24.80;;;;;;6224409;28;20472;-67
2023/02/04 13:11:08;;;;;;;10.23;1.00;;;18.00;24.50;;;;;;6200809;28;20535;-67
2023/02/04 13:14:11;;;;;;;0.63;0.63;;;19.30;24.10;;;;;;6201154;28;20483;-67
2023/02/04 13:17:14;;;;;;;1.20;0.60;;;18.90;23.40;;;;;;6201137;28;20480;-67
2023/02/04 13:20:18;;;;;;;0.90;0.80;;;18.10;23.50;;;;;;6200967;28;20237;-67
2023/02/04 13:23:22;;;;;;;0.70;0.63;;;18.20;24.20;;;;;;6200894;28;20469;-67
2023/02/04 13:26:26;;;;;;;1.07;0.93;;;17.70;23.70;;;;;;6200500;28;20473;-67
2023/02/04 13:29:29;;;;;;;1.00;0.80;;;15.50;25.60;;;;;;6200200;28;20491;-67
2023/02/04 13:32:33;;;;;;;1.20;1.10;;;14.70;27.10;;;;;;6201441;28;20472;-67
2023/02/04 13:35:37;;;;;;;0.50;0.50;;;14.80;27.50;;;;;;6200544;28;20939;-68
2023/02/04 13:38:40;;;;;;;0.90;0.70;;;14.40;27.50;;;;;;6200835;28;20487;-67
2023/02/04 13:41:45;;;;;;;1.37;0.80;;;13.20;28.90;;;;;;6200781;28;20469;-67
2023/02/04 13:44:48;;;;;;;0.60;0.60;;;12.40;30.10;;;;;;6205853;28;20527;-67
2023/02/04 13:47:51;;;;;;;1.13;1.00;;;12.20;29.70;;;;;;6205717;28;20487;-69
2023/02/04 13:50:54;;;;;;;0.80;0.80;;;12.20;30.30;;;;;;6205350;28;20794;-67
2023/02/04 13:53:59;;;;;;;1.60;0.83;;;11.40;30.70;;;;;;6205388;28;20949;-67
2023/02/04 13:57:04;;;;;;;5.53;1.50;;;11.10;32.00;;;;;;6205081;28;20485;-67
2023/02/04 14:00:09;;;;;;;1.30;1.00;;;11.10;32.60;;;;;;6205116;28;20480;-67
2023/02/04 14:03:12;;;;;;;2.30;1.00;;;10.90;32.50;;;;;;6204960;28;20937;-67
2023/02/04 14:06:19;;;;;;;1.00;1.00;;;10.90;33.30;;;;;;6195690;28;20492;-67
2023/02/04 14:09:24;;;;;;;1.23;0.90;;;10.80;34.10;;;;;;6193179;28;20797;-67
2023/02/04 14:12:28;;;;;;;1.17;1.07;;;10.70;33.00;;;;;;6180894;28;20833;-67
2023/02/04 14:15:33;;;;;;;1.17;0.90;;;10.80;33.70;;;;;;6180542;28;20489;-66
2023/02/04 14:18:37;;;;;;;0.93;0.93;;;10.80;33.90;;;;;;6180277;28;20603;-66
2023/02/04 14:21:40;;;;;;;1.43;0.83;;;10.70;34.40;;;;;;6180731;28;20437;-66
2023/02/04 14:24:46;;;;;;;1.10;1.00;;;10.50;35.10;;;;;;6180246;28;20765;-66
2023/02/04 14:27:51;;;;;;;2.10;1.30;;;10.20;35.20;;;;;;6199955;28;20852;-66
2023/02/04 14:30:54;;;;;;;1.27;1.17;;;9.90;36.90;;;;;;6203298;28;20484;-66
2023/02/04 14:33:58;;;;;;;1.83;1.47;;;9.90;37.20;;;;;;6203727;28;20484;-66
2023/02/04 14:37:01;;;;;;;4.20;1.30;;;9.70;36.80;;;;;;6204119;28;20465;-66
2023/02/04 14:40:06;;;;;;;1.20;1.20;;;9.50;36.70;;;;;;6204583;28;20468;-66
2023/02/04 14:43:11;;;;;;;1.07;1.07;;;9.50;37.70;;;;;;6204051;28;21086;-65
2023/02/04 14:46:15;;;;;;;1.47;0.70;;;9.40;38.00;;;;;;6204922;28;20469;-65
2023/02/04 14:49:18;;;;;;;1.40;1.30;;;9.30;38.30;;;;;;6204111;28;20468;-66
2023/02/04 14:52:21;;;;;;;1.70;1.60;;;9.20;37.20;;;;;;6203907;28;20479;-66
2023/02/04 14:55:25;;;;;;;3.93;1.20;;;9.00;37.40;;;;;;6203503;28;20487;-66
2023/02/04 14:58:30;;;;;;;1.40;0.93;;;8.80;38.80;;;;;;6204011;28;20887;-66
2023/02/04 15:01:34;;;;;;;1.00;1.00;;;8.50;39.00;;;;;;6203870;28;20476;-65
2023/02/04 15:04:37;;;;;;;6.60;4.03;;;8.10;39.50;;;;;;6204209;28;20469;-66
2023/02/04 15:07:41;;;;;;;1.60;1.50;;;8.00;39.70;;;;;;6200015;28;20475;-66
2023/02/04 15:10:44;;;;;;;1.77;1.60;;;7.90;39.60;;;;;;6203591;28;20480;-66
2023/02/04 15:13:49;;;;;;;1.60;1.10;;;7.90;40.30;;;;;;6204187;28;20477;-66
2023/02/04 15:16:53;;;;;;;1.90;1.40;;;7.70;40.30;;;;;;6203588;28;20488;-66
2023/02/04 15:19:56;;;;;;;3.17;1.53;;;7.70;40.30;;;;;;6203481;28;20816;-67
2023/02/04 15:23:00;;;;;;;2.20;1.50;;;7.70;49.40;;;;;;6203653;28;20477;-66
2023/02/04 15:26:03;;;;;;;3.57;3.37;;;7.70;45.90;;;;;;6203834;28;20469;-67
2023/02/04 15:29:08;;;;;;;1.10;1.10;;;7.70;44.40;;;;;;6196869;28;20488;-66
2023/02/04 15:32:11;;;;;;;2.23;1.50;;;7.70;42.40;;;;;;6202986;28;20503;-66
2023/02/04 15:35:15;;;;;;;1.47;1.37;;;7.60;41.40;;;;;;6203665;28;20794;-66
2023/02/04 15:38:18;;;;;;;2.07;1.37;;;7.40;41.80;;;;;;6203036;28;20976;-65
2023/02/04 15:41:21;;;;;;;1.37;1.27;;;7.20;41.30;;;;;;6203368;28;20484;-65
2023/02/04 15:44:27;;;;;;;1.07;1.00;;;7.10;42.00;;;;;;6203643;28;20476;-65
2023/02/04 15:47:30;;;;;;;2.53;2.10;;;7.10;42.30;;;;;;6181414;28;20485;-66
2023/02/04 15:50:33;;;;;;;1.17;1.07;;;7.00;42.30;;;;;;6177926;28;20957;-64
2023/02/04 15:53:37;;;;;;;2.33;1.30;;;7.00;41.90;;;;;;6177763;28;20973;-66
2023/02/04 15:56:40;;;;;;;5.57;1.40;;;6.80;42.10;;;;;;6177582;28;20829;-66
2023/02/04 15:59:47;;;;;;;1.33;1.23;;;6.80;42.70;;;;;;6178389;28;20486;-67
2023/02/04 16:02:51;;;;;;;1.87;1.67;;;6.60;43.30;;;;;;6185066;28;20866;-66
2023/02/04 16:05:55;;;;;;;1.80;1.70;;;6.60;43.20;;;;;;6177454;28;20838;-66
2023/02/04 16:08:58;;;;;;;29.87;16.60;;;6.50;43.30;;;;;;6177962;28;20986;-65
2023/02/04 16:12:02;;;;;;;17.13;13.40;;;6.40;43.80;;;;;;6177788;28;20496;-65